sensor_id;sensor_type;location;lat;lon;timestamp;temperature;humidity
45803;DHT22;31504;51.716;9.184;2023-07-13T00:02:24;24.60;58.20
45803;DHT22;31504;51.716;9.184;2023-07-13T00:05:27;24.60;58.10
45803;DHT22;31504;51.716;9.184;2023-07-13T00:11:30;24.60;58.20
45803;DHT22;31504;51.716;9.184;2023-07-13T00:14:30;24.60;58.10
45803;DHT22;31504;51.716;9.184;2023-07-13T00:17:30;24.60;58.20
45803;DHT22;31504;51.716;9.184;2023-07-13T00:20:31;24.50;58.10
45803;DHT22;31504;51.716;9.184;2023-07-13T00:23:36;24.60;58.20
45803;DHT22;31504;51.716;9.184;2023-07-13T00:26:37;24.60;58.20
45803;DHT22;31504;51.716;9.184;2023-07-13T00:29:37;24.50;58.10
45803;DHT22;31504;51.716;9.184;2023-07-13T00:32:38;24.50;58.00
45803;DHT22;31504;51.716;9.184;2023-07-13T00:35:38;24.50;58.10
45803;DHT22;31504;51.716;9.184;2023-07-13T00:38:40;24.50;58.00
45803;DHT22;31504;51.716;9.184;2023-07-13T00:41:40;24.50;58.00
45803;DHT22;31504;51.716;9.184;2023-07-13T00:44:41;24.50;58.10
45803;DHT22;31504;51.716;9.184;2023-07-13T00:47:43;24.50;58.00
45803;DHT22;31504;51.716;9.184;2023-07-13T00:50:44;24.50;58.10
45803;DHT22;31504;51.716;9.184;2023-07-13T00:53:44;24.50;58.00
45803;DHT22;31504;51.716;9.184;2023-07-13T00:56:45;24.50;58.00
45803;DHT22;31504;51.716;9.184;2023-07-13T00:59:47;24.50;58.00
45803;DHT22;31504;51.716;9.184;2023-07-13T01:02:49;24.50;58.10
45803;DHT22;31504;51.716;9.184;2023-07-13T01:05:50;24.50;58.00
45803;DHT22;31504;51.716;9.184;2023-07-13T01:08:51;24.50;58.00
45803;DHT22;31504;51.716;9.184;2023-07-13T01:11:52;24.50;58.00
45803;DHT22;31504;51.716;9.184;2023-07-13T01:14:59;24.50;58.00
45803;DHT22;31504;51.716;9.184;2023-07-13T01:18:00;24.50;58.00
45803;DHT22;31504;51.716;9.184;2023-07-13T01:21:01;24.50;58.00
45803;DHT22;31504;51.716;9.184;2023-07-13T01:24:02;24.50;58.00
45803;DHT22;31504;51.716;9.184;2023-07-13T01:27:03;24.50;58.00
45803;DHT22;31504;51.716;9.184;2023-07-13T01:30:04;24.50;58.00
45803;DHT22;31504;51.716;9.184;2023-07-13T01:33:04;24.50;58.00
45803;DHT22;31504;51.716;9.184;2023-07-13T01:36:09;24.40;57.90
45803;DHT22;31504;51.716;9.184;2023-07-13T01:39:09;24.50;58.00
45803;DHT22;31504;51.716;9.184;2023-07-13T01:42:09;24.40;57.90
45803;DHT22;31504;51.716;9.184;2023-07-13T01:45:10;24.50;57.90
45803;DHT22;31504;51.716;9.184;2023-07-13T01:48:11;24.40;57.90
45803;DHT22;31504;51.716;9.184;2023-07-13T01:51:11;24.40;57.90
45803;DHT22;31504;51.716;9.184;2023-07-13T01:54:12;24.40;57.90
45803;DHT22;31504;51.716;9.184;2023-07-13T01:57:13;24.40;57.90
45803;DHT22;31504;51.716;9.184;2023-07-13T02:00:13;24.40;57.90
45803;DHT22;31504;51.716;9.184;2023-07-13T02:03:14;24.40;57.90
45803;DHT22;31504;51.716;9.184;2023-07-13T02:06:18;24.40;57.90
45803;DHT22;31504;51.716;9.184;2023-07-13T02:09:18;24.40;57.90
45803;DHT22;31504;51.716;9.184;2023-07-13T02:12:19;24.40;57.90
45803;DHT22;31504;51.716;9.184;2023-07-13T02:15:19;24.40;57.90
45803;DHT22;31504;51.716;9.184;2023-07-13T02:18:20;24.40;57.80
45803;DHT22;31504;51.716;9.184;2023-07-13T02:21:20;24.40;57.80
45803;DHT22;31504;51.716;9.184;2023-07-13T02:24:20;24.40;57.90
45803;DHT22;31504;51.716;9.184;2023-07-13T02:27:21;24.40;57.80
45803;DHT22;31504;51.716;9.184;2023-07-13T02:30:21;24.40;57.70
45803;DHT22;31504;51.716;9.184;2023-07-13T02:33:24;24.40;57.70
45803;DHT22;31504;51.716;9.184;2023-07-13T02:36:25;24.40;57.70
45803;DHT22;31504;51.716;9.184;2023-07-13T02:39:25;24.40;57.70
45803;DHT22;31504;51.716;9.184;2023-07-13T02:42:26;24.40;57.70
45803;DHT22;31504;51.716;9.184;2023-07-13T02:45:26;24.40;57.70
45803;DHT22;31504;51.716;9.184;2023-07-13T02:48:27;24.40;57.70
45803;DHT22;31504;51.716;9.184;2023-07-13T02:51:27;24.40;57.70
45803;DHT22;31504;51.716;9.184;2023-07-13T02:54:27;24.40;57.60
45803;DHT22;31504;51.716;9.184;2023-07-13T02:57:28;24.40;57.60
45803;DHT22;31504;51.716;9.184;2023-07-13T03:00:28;24.40;57.40
45803;DHT22;31504;51.716;9.184;2023-07-13T03:03:29;24.40;57.70
45803;DHT22;31504;51.716;9.184;2023-07-13T03:06:30;24.40;57.70
45803;DHT22;31504;51.716;9.184;2023-07-13T03:09:31;24.40;57.70
45803;DHT22;31504;51.716;9.184;2023-07-13T03:12:32;24.40;57.70
45803;DHT22;31504;51.716;9.184;2023-07-13T03:15:32;24.30;57.60
45803;DHT22;31504;51.716;9.184;2023-07-13T03:18:33;24.40;57.70
45803;DHT22;31504;51.716;9.184;2023-07-13T03:21:33;24.30;57.60
45803;DHT22;31504;51.716;9.184;2023-07-13T03:24:34;24.40;57.60
45803;DHT22;31504;51.716;9.184;2023-07-13T03:27:34;24.30;57.60
45803;DHT22;31504;51.716;9.184;2023-07-13T03:30:35;24.30;57.60
45803;DHT22;31504;51.716;9.184;2023-07-13T03:33:36;24.30;57.50
45803;DHT22;31504;51.716;9.184;2023-07-13T03:36:36;24.30;57.60
45803;DHT22;31504;51.716;9.184;2023-07-13T03:39:37;24.30;57.50
45803;DHT22;31504;51.716;9.184;2023-07-13T03:42:37;24.30;57.50
45803;DHT22;31504;51.716;9.184;2023-07-13T03:45:38;24.30;57.50
45803;DHT22;31504;51.716;9.184;2023-07-13T03:48:38;24.30;57.50
45803;DHT22;31504;51.716;9.184;2023-07-13T03:51:41;24.30;57.50
45803;DHT22;31504;51.716;9.184;2023-07-13T03:54:41;24.30;57.50
45803;DHT22;31504;51.716;9.184;2023-07-13T03:57:41;24.30;57.50
45803;DHT22;31504;51.716;9.184;2023-07-13T04:00:42;24.30;57.40
45803;DHT22;31504;51.716;9.184;2023-07-13T04:03:42;24.30;57.50
45803;DHT22;31504;51.716;9.184;2023-07-13T04:06:43;24.30;57.40
45803;DHT22;31504;51.716;9.184;2023-07-13T04:09:43;24.30;57.40
45803;DHT22;31504;51.716;9.184;2023-07-13T04:12:44;24.20;57.30
45803;DHT22;31504;51.716;9.184;2023-07-13T04:15:44;24.30;57.40
45803;DHT22;31504;51.716;9.184;2023-07-13T04:18:45;24.20;57.30
45803;DHT22;31504;51.716;9.184;2023-07-13T04:21:46;24.20;57.30
45803;DHT22;31504;51.716;9.184;2023-07-13T04:24:46;24.20;57.30
45803;DHT22;31504;51.716;9.184;2023-07-13T04:27:46;24.20;57.30
45803;DHT22;31504;51.716;9.184;2023-07-13T04:30:47;24.20;57.20
45803;DHT22;31504;51.716;9.184;2023-07-13T04:33:48;24.20;57.20
45803;DHT22;31504;51.716;9.184;2023-07-13T04:36:49;24.20;57.80
45803;DHT22;31504;51.716;9.184;2023-07-13T04:39:50;24.20;57.20
45803;DHT22;31504;51.716;9.184;2023-07-13T04:42:50;24.20;57.20
45803;DHT22;31504;51.716;9.184;2023-07-13T04:45:51;24.20;57.20
45803;DHT22;31504;51.716;9.184;2023-07-13T04:48:52;24.20;57.20
45803;DHT22;31504;51.716;9.184;2023-07-13T04:51:53;24.20;57.20
45803;DHT22;31504;51.716;9.184;2023-07-13T04:54:55;24.20;57.10
45803;DHT22;31504;51.716;9.184;2023-07-13T04:57:55;24.20;57.10
45803;DHT22;31504;51.716;9.184;2023-07-13T05:01:00;24.20;57.10
45803;DHT22;31504;51.716;9.184;2023-07-13T05:04:01;24.20;57.10
45803;DHT22;31504;51.716;9.184;2023-07-13T05:07:01;24.20;57.10
45803;DHT22;31504;51.716;9.184;2023-07-13T05:10:02;24.20;57.10
45803;DHT22;31504;51.716;9.184;2023-07-13T05:13:04;24.20;57.10
45803;DHT22;31504;51.716;9.184;2023-07-13T05:16:05;24.20;57.10
45803;DHT22;31504;51.716;9.184;2023-07-13T05:19:08;24.20;57.00
45803;DHT22;31504;51.716;9.184;2023-07-13T05:22:08;24.20;57.00
45803;DHT22;31504;51.716;9.184;2023-07-13T05:25:08;24.20;57.00
45803;DHT22;31504;51.716;9.184;2023-07-13T05:28:09;24.20;57.00
45803;DHT22;31504;51.716;9.184;2023-07-13T05:31:09;24.20;57.00
45803;DHT22;31504;51.716;9.184;2023-07-13T05:34:10;24.20;57.00
45803;DHT22;31504;51.716;9.184;2023-07-13T05:37:10;24.20;57.00
45803;DHT22;31504;51.716;9.184;2023-07-13T05:40:11;24.20;57.10
45803;DHT22;31504;51.716;9.184;2023-07-13T05:43:11;24.20;57.10
45803;DHT22;31504;51.716;9.184;2023-07-13T05:46:12;24.20;57.00
45803;DHT22;31504;51.716;9.184;2023-07-13T05:49:12;24.20;57.00
45803;DHT22;31504;51.716;9.184;2023-07-13T05:52:13;24.10;56.90
45803;DHT22;31504;51.716;9.184;2023-07-13T05:55:13;24.10;57.00
45803;DHT22;31504;51.716;9.184;2023-07-13T05:58:14;24.10;56.90
45803;DHT22;31504;51.716;9.184;2023-07-13T06:01:14;24.10;57.50
45803;DHT22;31504;51.716;9.184;2023-07-13T06:04:15;24.10;56.90
45803;DHT22;31504;51.716;9.184;2023-07-13T06:07:15;24.10;56.90
45803;DHT22;31504;51.716;9.184;2023-07-13T06:10:16;24.10;56.90
45803;DHT22;31504;51.716;9.184;2023-07-13T06:13:16;24.10;56.90
45803;DHT22;31504;51.716;9.184;2023-07-13T06:16:17;24.10;56.90
45803;DHT22;31504;51.716;9.184;2023-07-13T06:19:17;24.10;56.80
45803;DHT22;31504;51.716;9.184;2023-07-13T06:22:18;24.10;56.90
45803;DHT22;31504;51.716;9.184;2023-07-13T06:25:18;24.10;56.90
45803;DHT22;31504;51.716;9.184;2023-07-13T06:28:18;24.10;56.80
45803;DHT22;31504;51.716;9.184;2023-07-13T06:31:19;24.10;56.80
45803;DHT22;31504;51.716;9.184;2023-07-13T06:34:19;24.10;56.90
45803;DHT22;31504;51.716;9.184;2023-07-13T06:37:20;24.10;56.90
45803;DHT22;31504;51.716;9.184;2023-07-13T06:40:20;24.10;56.90
45803;DHT22;31504;51.716;9.184;2023-07-13T06:43:21;24.10;57.00
45803;DHT22;31504;51.716;9.184;2023-07-13T06:46:21;24.10;57.00
45803;DHT22;31504;51.716;9.184;2023-07-13T06:49:22;24.10;57.00
45803;DHT22;31504;51.716;9.184;2023-07-13T06:52:22;24.10;56.90
45803;DHT22;31504;51.716;9.184;2023-07-13T06:55:23;24.10;56.90
45803;DHT22;31504;51.716;9.184;2023-07-13T06:58:23;24.10;56.90
45803;DHT22;31504;51.716;9.184;2023-07-13T07:01:24;24.10;56.90
45803;DHT22;31504;51.716;9.184;2023-07-13T07:04:24;24.10;56.90
45803;DHT22;31504;51.716;9.184;2023-07-13T07:07:24;24.10;56.90
45803;DHT22;31504;51.716;9.184;2023-07-13T07:10:25;24.10;57.00
45803;DHT22;31504;51.716;9.184;2023-07-13T07:13:26;24.10;56.90
45803;DHT22;31504;51.716;9.184;2023-07-13T07:16:28;24.10;57.00
45803;DHT22;31504;51.716;9.184;2023-07-13T07:19:29;24.10;56.90
45803;DHT22;31504;51.716;9.184;2023-07-13T07:22:30;24.10;56.90
45803;DHT22;31504;51.716;9.184;2023-07-13T07:25:30;24.10;57.00
45803;DHT22;31504;51.716;9.184;2023-07-13T07:28:32;24.10;56.90
45803;DHT22;31504;51.716;9.184;2023-07-13T07:31:33;24.10;57.00
45803;DHT22;31504;51.716;9.184;2023-07-13T07:34:33;24.10;57.00
45803;DHT22;31504;51.716;9.184;2023-07-13T07:37:34;24.10;57.00
45803;DHT22;31504;51.716;9.184;2023-07-13T07:40:38;24.10;57.00
45803;DHT22;31504;51.716;9.184;2023-07-13T07:43:38;24.10;57.00
45803;DHT22;31504;51.716;9.184;2023-07-13T07:46:39;24.10;57.10
45803;DHT22;31504;51.716;9.184;2023-07-13T07:49:41;24.10;57.10
45803;DHT22;31504;51.716;9.184;2023-07-13T07:52:41;24.10;57.10
45803;DHT22;31504;51.716;9.184;2023-07-13T07:55:42;24.10;57.10
45803;DHT22;31504;51.716;9.184;2023-07-13T07:58:42;24.10;57.20
45803;DHT22;31504;51.716;9.184;2023-07-13T08:01:43;24.10;57.10
45803;DHT22;31504;51.716;9.184;2023-07-13T08:04:43;24.10;57.10
45803;DHT22;31504;51.716;9.184;2023-07-13T08:07:44;24.10;57.10
45803;DHT22;31504;51.716;9.184;2023-07-13T08:10:44;24.10;57.10
45803;DHT22;31504;51.716;9.184;2023-07-13T08:13:44;24.10;57.10
45803;DHT22;31504;51.716;9.184;2023-07-13T08:16:45;24.10;57.10
45803;DHT22;31504;51.716;9.184;2023-07-13T08:19:45;24.10;57.10
45803;DHT22;31504;51.716;9.184;2023-07-13T08:22:46;24.10;57.10
45803;DHT22;31504;51.716;9.184;2023-07-13T08:25:50;24.10;57.10
45803;DHT22;31504;51.716;9.184;2023-07-13T08:28:51;24.10;57.10
45803;DHT22;31504;51.716;9.184;2023-07-13T08:31:51;24.10;57.10
45803;DHT22;31504;51.716;9.184;2023-07-13T08:34:52;24.10;57.10
45803;DHT22;31504;51.716;9.184;2023-07-13T08:37:52;24.10;57.20
45803;DHT22;31504;51.716;9.184;2023-07-13T08:40:54;24.10;57.20
45803;DHT22;31504;51.716;9.184;2023-07-13T08:43:56;24.10;57.20
45803;DHT22;31504;51.716;9.184;2023-07-13T08:46:57;24.10;57.20
45803;DHT22;31504;51.716;9.184;2023-07-13T08:49:59;24.10;57.20
45803;DHT22;31504;51.716;9.184;2023-07-13T08:53:02;24.10;57.60
45803;DHT22;31504;51.716;9.184;2023-07-13T08:56:04;24.10;57.20
45803;DHT22;31504;51.716;9.184;2023-07-13T08:59:14;24.10;57.10
45803;DHT22;31504;51.716;9.184;2023-07-13T09:05:18;24.10;57.20
45803;DHT22;31504;51.716;9.184;2023-07-13T09:11:55;24.10;57.20
45803;DHT22;31504;51.716;9.184;2023-07-13T09:14:57;24.10;57.10
45803;DHT22;31504;51.716;9.184;2023-07-13T09:21:37;24.10;57.20
45803;DHT22;31504;51.716;9.184;2023-07-13T09:27:48;24.10;57.20
45803;DHT22;31504;51.716;9.184;2023-07-13T09:30:56;24.10;57.10
45803;DHT22;31504;51.716;9.184;2023-07-13T09:33:59;24.10;57.20
45803;DHT22;31504;51.716;9.184;2023-07-13T09:36:59;24.10;57.20
45803;DHT22;31504;51.716;9.184;2023-07-13T09:40:00;24.10;57.20
45803;DHT22;31504;51.716;9.184;2023-07-13T09:43:03;24.10;57.20
45803;DHT22;31504;51.716;9.184;2023-07-13T09:46:07;24.00;57.20
45803;DHT22;31504;51.716;9.184;2023-07-13T09:49:23;24.00;57.20
45803;DHT22;31504;51.716;9.184;2023-07-13T09:52:24;24.00;57.20
45803;DHT22;31504;51.716;9.184;2023-07-13T09:55:34;24.10;57.30
45803;DHT22;31504;51.716;9.184;2023-07-13T09:58:35;24.10;57.20
45803;DHT22;31504;51.716;9.184;2023-07-13T10:01:36;24.10;57.20
45803;DHT22;31504;51.716;9.184;2023-07-13T10:04:37;24.00;57.20
45803;DHT22;31504;51.716;9.184;2023-07-13T10:07:38;24.10;57.10
45803;DHT22;31504;51.716;9.184;2023-07-13T10:10:39;24.10;57.20
45803;DHT22;31504;51.716;9.184;2023-07-13T10:13:43;24.10;57.30
45803;DHT22;31504;51.716;9.184;2023-07-13T10:16:45;24.10;57.20
45803;DHT22;31504;51.716;9.184;2023-07-13T10:19:46;24.10;57.20
45803;DHT22;31504;51.716;9.184;2023-07-13T10:22:50;24.10;57.20
45803;DHT22;31504;51.716;9.184;2023-07-13T10:25:52;24.10;57.20
45803;DHT22;31504;51.716;9.184;2023-07-13T10:28:54;24.10;57.20
45803;DHT22;31504;51.716;9.184;2023-07-13T10:31:55;24.10;57.20
45803;DHT22;31504;51.716;9.184;2023-07-13T10:34:57;24.10;57.20
45803;DHT22;31504;51.716;9.184;2023-07-13T10:38:05;24.10;57.20
45803;DHT22;31504;51.716;9.184;2023-07-13T10:41:11;24.10;57.20
45803;DHT22;31504;51.716;9.184;2023-07-13T10:44:46;24.10;57.20
45803;DHT22;31504;51.716;9.184;2023-07-13T10:47:39;24.10;57.20
45803;DHT22;31504;51.716;9.184;2023-07-13T10:50:40;24.10;57.20
45803;DHT22;31504;51.716;9.184;2023-07-13T10:53:42;24.10;57.20
45803;DHT22;31504;51.716;9.184;2023-07-13T10:56:42;24.10;57.30
45803;DHT22;31504;51.716;9.184;2023-07-13T10:59:45;24.10;57.30
45803;DHT22;31504;51.716;9.184;2023-07-13T11:03:00;24.10;57.40
45803;DHT22;31504;51.716;9.184;2023-07-13T11:15:48;24.10;57.90
45803;DHT22;31504;51.716;9.184;2023-07-13T11:18:49;24.10;57.30
45803;DHT22;31504;51.716;9.184;2023-07-13T11:28:27;24.10;57.20
45803;DHT22;31504;51.716;9.184;2023-07-13T11:31:30;24.10;57.30
45803;DHT22;31504;51.716;9.184;2023-07-13T11:34:34;24.10;57.70
45803;DHT22;31504;51.716;9.184;2023-07-13T11:37:35;24.10;57.30
45803;DHT22;31504;51.716;9.184;2023-07-13T11:40:35;24.10;56.50
45803;DHT22;31504;51.716;9.184;2023-07-13T11:43:36;24.10;57.30
45803;DHT22;31504;51.716;9.184;2023-07-13T11:46:36;24.10;57.30
45803;DHT22;31504;51.716;9.184;2023-07-13T11:49:43;24.10;56.20
45803;DHT22;31504;51.716;9.184;2023-07-13T11:52:44;24.10;56.00
45803;DHT22;31504;51.716;9.184;2023-07-13T11:55:45;24.10;56.90
45803;DHT22;31504;51.716;9.184;2023-07-13T11:58:50;24.10;57.00
45803;DHT22;31504;51.716;9.184;2023-07-13T12:01:52;24.10;57.20
45803;DHT22;31504;51.716;9.184;2023-07-13T12:04:53;24.10;54.00
45803;DHT22;31504;51.716;9.184;2023-07-13T12:07:53;24.10;54.70
45803;DHT22;31504;51.716;9.184;2023-07-13T12:10:58;24.10;56.00
45803;DHT22;31504;51.716;9.184;2023-07-13T12:13:59;24.10;53.60
45803;DHT22;31504;51.716;9.184;2023-07-13T12:16:59;24.10;56.10
45803;DHT22;31504;51.716;9.184;2023-07-13T12:20:00;24.10;53.10
45803;DHT22;31504;51.716;9.184;2023-07-13T12:23:01;24.10;52.60
45803;DHT22;31504;51.716;9.184;2023-07-13T12:26:03;24.10;53.50
45803;DHT22;31504;51.716;9.184;2023-07-13T12:29:05;24.10;52.40
45803;DHT22;31504;51.716;9.184;2023-07-13T12:32:08;24.10;52.60
45803;DHT22;31504;51.716;9.184;2023-07-13T12:35:15;24.10;53.90
45803;DHT22;31504;51.716;9.184;2023-07-13T12:38:16;24.10;52.30
45803;DHT22;31504;51.716;9.184;2023-07-13T12:41:17;24.10;54.10
45803;DHT22;31504;51.716;9.184;2023-07-13T12:44:26;24.10;52.70
45803;DHT22;31504;51.716;9.184;2023-07-13T12:47:27;24.10;52.20
45803;DHT22;31504;51.716;9.184;2023-07-13T12:50:37;24.10;53.50
45803;DHT22;31504;51.716;9.184;2023-07-13T12:53:42;24.10;55.40
45803;DHT22;31504;51.716;9.184;2023-07-13T12:56:43;24.10;55.70
45803;DHT22;31504;51.716;9.184;2023-07-13T12:59:44;24.10;56.70
45803;DHT22;31504;51.716;9.184;2023-07-13T13:02:45;24.10;56.80
45803;DHT22;31504;51.716;9.184;2023-07-13T13:05:45;24.10;55.80
45803;DHT22;31504;51.716;9.184;2023-07-13T13:08:46;24.10;56.30
45803;DHT22;31504;51.716;9.184;2023-07-13T13:11:48;24.10;54.10
45803;DHT22;31504;51.716;9.184;2023-07-13T13:14:50;24.10;56.20
45803;DHT22;31504;51.716;9.184;2023-07-13T13:17:53;24.10;56.80
45803;DHT22;31504;51.716;9.184;2023-07-13T13:20:53;24.10;57.00
45803;DHT22;31504;51.716;9.184;2023-07-13T13:23:53;24.10;55.00
45803;DHT22;31504;51.716;9.184;2023-07-13T13:26:54;24.10;55.90
45803;DHT22;31504;51.716;9.184;2023-07-13T13:29:57;24.10;56.40
45803;DHT22;31504;51.716;9.184;2023-07-13T13:32:58;24.10;54.80
45803;DHT22;31504;51.716;9.184;2023-07-13T13:35:58;24.10;56.80
45803;DHT22;31504;51.716;9.184;2023-07-13T13:38:59;24.10;56.40
45803;DHT22;31504;51.716;9.184;2023-07-13T13:42:01;24.10;56.60
45803;DHT22;31504;51.716;9.184;2023-07-13T13:45:01;24.10;56.90
45803;DHT22;31504;51.716;9.184;2023-07-13T13:48:03;24.10;57.10
45803;DHT22;31504;51.716;9.184;2023-07-13T13:51:09;24.10;56.40
45803;DHT22;31504;51.716;9.184;2023-07-13T13:54:13;24.10;56.60
45803;DHT22;31504;51.716;9.184;2023-07-13T13:57:14;24.10;57.00
45803;DHT22;31504;51.716;9.184;2023-07-13T14:00:15;24.10;56.60
45803;DHT22;31504;51.716;9.184;2023-07-13T14:03:17;24.10;57.10
45803;DHT22;31504;51.716;9.184;2023-07-13T14:06:18;24.10;57.20
45803;DHT22;31504;51.716;9.184;2023-07-13T14:09:19;24.10;57.00
45803;DHT22;31504;51.716;9.184;2023-07-13T14:12:19;24.10;57.10
45803;DHT22;31504;51.716;9.184;2023-07-13T14:15:24;24.10;56.50
45803;DHT22;31504;51.716;9.184;2023-07-13T14:18:25;24.10;54.70
45803;DHT22;31504;51.716;9.184;2023-07-13T14:21:27;24.10;56.30
45803;DHT22;31504;51.716;9.184;2023-07-13T14:24:28;24.10;53.70
45803;DHT22;31504;51.716;9.184;2023-07-13T14:27:28;24.10;52.50
45803;DHT22;31504;51.716;9.184;2023-07-13T14:30:28;24.00;52.10
45803;DHT22;31504;51.716;9.184;2023-07-13T14:33:29;24.00;51.10
45803;DHT22;31504;51.716;9.184;2023-07-13T14:36:34;23.90;50.00
45803;DHT22;31504;51.716;9.184;2023-07-13T14:39:36;24.00;52.90
45803;DHT22;31504;51.716;9.184;2023-07-13T14:42:36;24.00;49.70
45803;DHT22;31504;51.716;9.184;2023-07-13T14:45:38;24.00;50.40
45803;DHT22;31504;51.716;9.184;2023-07-13T14:48:40;24.00;51.30
45803;DHT22;31504;51.716;9.184;2023-07-13T14:51:41;24.00;52.00
45803;DHT22;31504;51.716;9.184;2023-07-13T14:54:43;24.00;51.20
45803;DHT22;31504;51.716;9.184;2023-07-13T14:57:45;24.00;50.40
45803;DHT22;31504;51.716;9.184;2023-07-13T15:00:46;24.10;50.70
45803;DHT22;31504;51.716;9.184;2023-07-13T15:03:47;24.10;49.40
45803;DHT22;31504;51.716;9.184;2023-07-13T15:06:55;24.10;48.70
45803;DHT22;31504;51.716;9.184;2023-07-13T15:09:56;24.10;49.80
45803;DHT22;31504;51.716;9.184;2023-07-13T15:13:01;24.10;48.80
45803;DHT22;31504;51.716;9.184;2023-07-13T15:16:02;24.10;50.30
45803;DHT22;31504;51.716;9.184;2023-07-13T15:19:03;24.10;48.90
45803;DHT22;31504;51.716;9.184;2023-07-13T15:22:03;24.10;49.30
45803;DHT22;31504;51.716;9.184;2023-07-13T15:25:11;24.10;49.50
45803;DHT22;31504;51.716;9.184;2023-07-13T15:28:11;24.10;49.70
45803;DHT22;31504;51.716;9.184;2023-07-13T15:31:17;24.10;50.20
45803;DHT22;31504;51.716;9.184;2023-07-13T15:34:19;24.20;50.10
45803;DHT22;31504;51.716;9.184;2023-07-13T15:37:20;24.20;50.40
45803;DHT22;31504;51.716;9.184;2023-07-13T15:40:21;24.20;50.60
45803;DHT22;31504;51.716;9.184;2023-07-13T15:43:25;24.20;53.50
45803;DHT22;31504;51.716;9.184;2023-07-13T15:46:27;24.10;52.20
45803;DHT22;31504;51.716;9.184;2023-07-13T15:49:28;24.10;53.70
45803;DHT22;31504;51.716;9.184;2023-07-13T15:52:29;24.10;54.60
45803;DHT22;31504;51.716;9.184;2023-07-13T15:55:30;24.10;55.50
45803;DHT22;31504;51.716;9.184;2023-07-13T15:58:30;24.10;54.90
45803;DHT22;31504;51.716;9.184;2023-07-13T16:01:31;24.10;55.10
45803;DHT22;31504;51.716;9.184;2023-07-13T16:04:32;24.10;55.30
45803;DHT22;31504;51.716;9.184;2023-07-13T16:07:32;24.10;55.20
45803;DHT22;31504;51.716;9.184;2023-07-13T16:10:34;24.10;54.80
45803;DHT22;31504;51.716;9.184;2023-07-13T16:13:34;24.10;54.90
45803;DHT22;31504;51.716;9.184;2023-07-13T16:16:35;24.10;55.60
45803;DHT22;31504;51.716;9.184;2023-07-13T16:19:35;24.10;55.60
45803;DHT22;31504;51.716;9.184;2023-07-13T16:22:36;24.10;55.70
45803;DHT22;31504;51.716;9.184;2023-07-13T16:25:37;24.10;55.80
45803;DHT22;31504;51.716;9.184;2023-07-13T16:28:37;24.10;55.80
45803;DHT22;31504;51.716;9.184;2023-07-13T16:31:37;24.10;55.80
45803;DHT22;31504;51.716;9.184;2023-07-13T16:34:38;24.10;55.90
45803;DHT22;31504;51.716;9.184;2023-07-13T16:37:41;24.10;56.00
45803;DHT22;31504;51.716;9.184;2023-07-13T16:40:42;24.00;55.90
45803;DHT22;31504;51.716;9.184;2023-07-13T16:43:42;24.10;56.00
45803;DHT22;31504;51.716;9.184;2023-07-13T16:46:48;24.10;56.60
45803;DHT22;31504;51.716;9.184;2023-07-13T16:49:49;24.10;56.10
45803;DHT22;31504;51.716;9.184;2023-07-13T16:52:50;24.00;56.10
45803;DHT22;31504;51.716;9.184;2023-07-13T16:55:51;24.00;56.10
45803;DHT22;31504;51.716;9.184;2023-07-13T16:58:55;24.00;56.20
45803;DHT22;31504;51.716;9.184;2023-07-13T17:01:56;24.00;56.20
45803;DHT22;31504;51.716;9.184;2023-07-13T17:04:59;24.00;56.30
45803;DHT22;31504;51.716;9.184;2023-07-13T17:08:01;24.00;56.30
45803;DHT22;31504;51.716;9.184;2023-07-13T17:11:03;24.00;56.30
45803;DHT22;31504;51.716;9.184;2023-07-13T17:14:05;24.10;56.40
45803;DHT22;31504;51.716;9.184;2023-07-13T17:17:15;24.10;56.30
45803;DHT22;31504;51.716;9.184;2023-07-13T17:20:21;24.00;56.30
45803;DHT22;31504;51.716;9.184;2023-07-13T17:23:24;24.00;56.30
45803;DHT22;31504;51.716;9.184;2023-07-13T17:26:24;24.00;56.30
45803;DHT22;31504;51.716;9.184;2023-07-13T17:29:25;24.00;56.30
45803;DHT22;31504;51.716;9.184;2023-07-13T17:32:25;24.00;56.40
45803;DHT22;31504;51.716;9.184;2023-07-13T17:35:27;24.00;56.40
45803;DHT22;31504;51.716;9.184;2023-07-13T17:38:38;24.00;56.40
45803;DHT22;31504;51.716;9.184;2023-07-13T17:41:43;24.00;56.50
45803;DHT22;31504;51.716;9.184;2023-07-13T17:44:44;24.00;56.50
45803;DHT22;31504;51.716;9.184;2023-07-13T17:47:48;24.00;56.50
45803;DHT22;31504;51.716;9.184;2023-07-13T17:50:49;24.00;56.60
45803;DHT22;31504;51.716;9.184;2023-07-13T17:53:51;24.00;56.60
45803;DHT22;31504;51.716;9.184;2023-07-13T17:56:52;24.00;56.60
45803;DHT22;31504;51.716;9.184;2023-07-13T17:59:52;24.00;56.60
45803;DHT22;31504;51.716;9.184;2023-07-13T18:02:55;24.00;56.70
45803;DHT22;31504;51.716;9.184;2023-07-13T18:06:01;24.00;56.60
45803;DHT22;31504;51.716;9.184;2023-07-13T18:09:04;24.00;56.60
45803;DHT22;31504;51.716;9.184;2023-07-13T18:12:12;24.00;56.70
45803;DHT22;31504;51.716;9.184;2023-07-13T18:15:14;24.00;56.70
45803;DHT22;31504;51.716;9.184;2023-07-13T18:18:15;24.00;56.70
45803;DHT22;31504;51.716;9.184;2023-07-13T18:21:15;24.00;56.70
45803;DHT22;31504;51.716;9.184;2023-07-13T18:24:16;24.00;56.70
45803;DHT22;31504;51.716;9.184;2023-07-13T18:27:17;24.00;56.80
45803;DHT22;31504;51.716;9.184;2023-07-13T18:30:18;24.00;56.80
45803;DHT22;31504;51.716;9.184;2023-07-13T18:33:26;24.00;56.80
45803;DHT22;31504;51.716;9.184;2023-07-13T18:36:29;24.00;56.90
45803;DHT22;31504;51.716;9.184;2023-07-13T18:39:30;24.00;56.80
45803;DHT22;31504;51.716;9.184;2023-07-13T18:42:30;24.00;56.90
45803;DHT22;31504;51.716;9.184;2023-07-13T18:45:32;24.00;56.70
45803;DHT22;31504;51.716;9.184;2023-07-13T18:48:32;24.00;56.80
45803;DHT22;31504;51.716;9.184;2023-07-13T18:51:33;24.00;56.80
45803;DHT22;31504;51.716;9.184;2023-07-13T18:54:33;24.00;56.90
45803;DHT22;31504;51.716;9.184;2023-07-13T18:57:34;24.00;56.90
45803;DHT22;31504;51.716;9.184;2023-07-13T19:00:34;24.00;56.90
45803;DHT22;31504;51.716;9.184;2023-07-13T19:03:34;24.00;56.90
45803;DHT22;31504;51.716;9.184;2023-07-13T19:06:36;24.00;56.90
45803;DHT22;31504;51.716;9.184;2023-07-13T19:09:37;24.00;56.90
45803;DHT22;31504;51.716;9.184;2023-07-13T19:12:42;24.00;56.90
45803;DHT22;31504;51.716;9.184;2023-07-13T19:15:43;24.00;57.00
45803;DHT22;31504;51.716;9.184;2023-07-13T19:18:43;24.00;57.00
45803;DHT22;31504;51.716;9.184;2023-07-13T19:21:49;24.00;57.00
45803;DHT22;31504;51.716;9.184;2023-07-13T19:24:51;24.00;57.10
45803;DHT22;31504;51.716;9.184;2023-07-13T19:27:53;24.00;57.10
45803;DHT22;31504;51.716;9.184;2023-07-13T19:30:54;24.00;57.00
45803;DHT22;31504;51.716;9.184;2023-07-13T19:33:54;24.00;57.10
45803;DHT22;31504;51.716;9.184;2023-07-13T19:36:58;24.00;57.10
45803;DHT22;31504;51.716;9.184;2023-07-13T19:39:59;24.00;57.10